createdAt,value
2023-05-08T00:01:11.515Z,73.76
2023-05-08T00:03:39.446Z,75.30
2023-05-08T00:06:06.997Z,76.05
2023-05-08T00:08:34.108Z,76.49
2023-05-08T00:11:01.575Z,76.86
2023-05-08T00:13:28.750Z,77.57
2023-05-08T00:15:55.909Z,78.06
2023-05-08T00:18:23.370Z,77.31
2023-05-08T00:20:50.508Z,77.66
2023-05-08T00:23:17.675Z,77.88
2023-05-08T00:25:45.065Z,78.09
2023-05-08T00:28:12.239Z,78.32
2023-05-08T00:30:39.917Z,78.60
2023-05-08T00:33:07.765Z,79.00
2023-05-08T00:35:34.922Z,79.20
2023-05-08T00:38:02.201Z,79.96
2023-05-08T00:40:29.761Z,80.42
2023-05-08T00:42:56.871Z,80.63
2023-05-08T00:45:24.123Z,81.26
2023-05-08T00:47:51.687Z,81.87
2023-05-08T00:50:18.949Z,82.18
2023-05-08T00:52:46.390Z,82.48
2023-05-08T00:55:13.757Z,82.78
2023-05-08T00:57:40.884Z,82.83
2023-05-08T01:00:08.666Z,83.24
2023-05-08T01:02:36.648Z,83.88
2023-05-08T01:05:04.153Z,83.98
2023-05-08T01:07:31.511Z,84.46
2023-05-08T01:09:58.932Z,84.25
2023-05-08T01:12:45.239Z,84.89
2023-05-08T01:15:17.507Z,84.65
2023-05-08T01:18:18.994Z,84.26
2023-05-08T01:20:59.556Z,84.47
2023-05-08T01:23:48.238Z,84.99
2023-05-08T01:26:51.705Z,85.75
2023-05-08T01:29:39.013Z,86.11
2023-05-08T01:32:22.764Z,86.51
2023-05-08T01:35:43.910Z,86.18
2023-05-08T01:38:27.984Z,86.80
2023-05-08T01:41:28.435Z,86.59
2023-05-08T01:44:10.578Z,86.70
2023-05-08T01:46:37.850Z,86.77
2023-05-08T01:49:09.448Z,86.82
2023-05-08T01:51:41.175Z,86.46
2023-05-08T01:54:12.620Z,87.00
2023-05-08T01:56:42.998Z,87.12
2023-05-08T01:59:14.136Z,87.08
2023-05-08T02:01:44.927Z,87.60
2023-05-08T02:04:12.765Z,87.38
2023-05-08T02:06:40.551Z,87.67
2023-05-08T02:09:08.707Z,87.52
2023-05-08T02:11:38.150Z,87.78
2023-05-08T02:14:06.832Z,88.02
2023-05-08T02:16:36.183Z,88.00
2023-05-08T02:19:04.701Z,88.07
2023-05-08T02:21:32.264Z,87.69
2023-05-08T02:24:00.799Z,88.05
2023-05-08T02:26:28.738Z,87.42
2023-05-08T02:28:56.264Z,86.82
2023-05-08T02:31:24.652Z,86.91
2023-05-08T02:33:52.759Z,87.02
2023-05-08T02:36:20.572Z,87.21
2023-05-08T02:38:51.847Z,87.17
2023-05-08T02:41:22.232Z,86.83
2023-05-08T02:43:51.875Z,86.62
2023-05-08T02:46:22.956Z,86.56
2023-05-08T02:49:00.756Z,86.09
2023-05-08T02:51:39.815Z,86.25
2023-05-08T02:54:16.204Z,86.93
2023-05-08T02:57:21.795Z,87.49
2023-05-08T03:00:06.283Z,87.85
2023-05-08T03:02:42.242Z,88.01
2023-05-08T03:05:30.694Z,87.77
2023-05-08T03:08:00.965Z,88.21
2023-05-08T03:10:35.590Z,88.58
2023-05-08T03:13:06.314Z,89.42
2023-05-08T03:15:42.524Z,89.51
2023-05-08T03:18:12.053Z,89.81
2023-05-08T03:20:43.541Z,89.66
2023-05-08T03:23:13.063Z,90.16
2023-05-08T03:25:42.292Z,89.40
2023-05-08T03:28:10.684Z,88.49
2023-05-08T03:30:40.768Z,87.00
2023-05-08T03:33:09.013Z,87.44
2023-05-08T03:35:39.627Z,86.47
2023-05-08T03:38:08.130Z,87.19
2023-05-08T03:40:36.907Z,87.75
2023-05-08T03:43:08.055Z,88.58
2023-05-08T03:45:40.269Z,88.59
2023-05-08T03:48:08.922Z,88.44
2023-05-08T03:50:37.982Z,88.08
2023-05-08T03:53:05.627Z,88.06
2023-05-08T03:55:33.184Z,89.46
2023-05-08T03:58:14.102Z,89.88
2023-05-08T04:00:56.940Z,90.16
2023-05-08T04:03:37.370Z,90.61
2023-05-08T04:06:14.348Z,90.58
2023-05-08T04:08:47.313Z,90.25
2023-05-08T04:11:30.471Z,89.95
2023-05-08T04:14:03.589Z,89.31
2023-05-08T04:16:39.617Z,89.03
2023-05-08T04:19:11.021Z,89.16
2023-05-08T04:21:42.554Z,89.03
2023-05-08T04:24:13.033Z,88.70
2023-05-08T04:26:40.774Z,88.08
2023-05-08T04:29:08.339Z,87.83
2023-05-08T04:31:36.960Z,87.73
2023-05-08T04:34:04.633Z,87.20
2023-05-08T04:36:33.911Z,86.80
2023-05-08T04:39:02.152Z,87.11
2023-05-08T04:41:30.374Z,86.87
2023-05-08T04:43:57.735Z,85.54
2023-05-08T04:46:25.706Z,84.49
2023-05-08T04:48:52.993Z,83.36
2023-05-08T04:51:20.287Z,82.13
2023-05-08T04:53:49.138Z,81.54
2023-05-08T04:56:16.350Z,81.04
2023-05-08T04:58:43.581Z,82.12
2023-05-08T05:01:11.381Z,82.76
2023-05-08T05:03:38.797Z,82.09
2023-05-08T05:06:06.105Z,80.66
2023-05-08T05:08:33.578Z,80.91
2023-05-08T05:11:01.528Z,81.91
2023-05-08T05:13:29.002Z,80.66
2023-05-08T05:15:59.471Z,79.57
2023-05-08T05:18:26.693Z,78.58
2023-05-08T05:20:54.003Z,79.07
2023-05-08T05:23:21.894Z,78.60
2023-05-08T05:25:49.129Z,78.21
2023-05-08T05:28:16.679Z,76.19
2023-05-08T05:30:47.249Z,74.24
2023-05-08T05:33:14.576Z,75.32
2023-05-08T05:35:41.909Z,78.78
2023-05-08T05:38:09.472Z,80.28
2023-05-08T05:40:36.808Z,80.45
2023-05-08T05:43:04.205Z,79.18
2023-05-08T05:45:33.536Z,79.01
2023-05-08T05:48:01.140Z,78.90
2023-05-08T05:50:29.861Z,78.71
2023-05-08T05:52:57.588Z,78.17
2023-05-08T05:55:25.776Z,77.03
2023-05-08T05:57:53.151Z,75.30
2023-05-08T06:00:21.497Z,75.56
2023-05-08T06:02:49.642Z,73.77
2023-05-08T06:05:19.129Z,72.21
2023-05-08T06:07:46.466Z,69.83
2023-05-08T06:10:13.926Z,69.89
2023-05-08T06:12:41.901Z,70.92
2023-05-08T06:15:09.983Z,70.15
2023-05-08T06:17:37.524Z,70.07
2023-05-08T06:20:05.501Z,69.59
2023-05-08T06:22:32.626Z,66.30
2023-05-08T06:25:00.139Z,68.17
2023-05-08T06:27:27.302Z,69.57
2023-05-08T06:29:54.406Z,62.73
2023-05-08T06:32:22.405Z,69.19
2023-05-08T06:34:49.734Z,63.66
2023-05-08T06:37:16.909Z,66.00
2023-05-08T06:39:44.409Z,62.01
2023-05-08T06:42:12.073Z,62.19
2023-05-08T06:44:40.744Z,62.79
2023-05-08T06:47:08.512Z,62.69
2023-05-08T06:49:36.449Z,62.43
2023-05-08T06:52:03.683Z,63.59
2023-05-08T06:54:31.121Z,63.68
2023-05-08T06:56:58.182Z,63.88
2023-05-08T06:59:25.383Z,63.52
2023-05-08T07:01:52.815Z,64.03
2023-05-08T07:04:20.286Z,63.31
2023-05-08T07:06:47.424Z,63.88
2023-05-08T07:09:16.204Z,64.07
2023-05-08T07:11:43.690Z,63.94
2023-05-08T07:14:10.778Z,63.04
2023-05-08T07:16:38.282Z,63.98
2023-05-08T07:19:05.630Z,66.65
2023-05-08T07:21:32.714Z,61.37
2023-05-08T07:24:00.141Z,61.75
2023-05-08T07:26:27.408Z,61.49
2023-05-08T07:28:54.612Z,61.54
2023-05-08T07:31:22.319Z,61.08
2023-05-08T07:33:49.561Z,61.09
2023-05-08T07:36:16.797Z,63.25
2023-05-08T07:38:44.265Z,62.12
2023-05-08T07:41:11.582Z,61.08
2023-05-08T07:43:39.216Z,60.27
2023-05-08T07:46:06.843Z,63.22
2023-05-08T07:48:34.478Z,59.14
2023-05-08T07:51:01.633Z,59.26
2023-05-08T07:53:29.259Z,60.65
2023-05-08T07:55:56.348Z,59.77
2023-05-08T07:58:23.982Z,61.34
2023-05-08T08:00:51.504Z,60.43
2023-05-08T08:03:19.014Z,60.68
2023-05-08T08:05:46.450Z,60.69
2023-05-08T08:08:13.635Z,62.54
2023-05-08T08:10:41.703Z,60.58
2023-05-08T08:13:08.810Z,64.06
2023-05-08T08:15:36.183Z,58.95
2023-05-08T08:18:03.836Z,56.05
2023-05-08T08:20:30.969Z,59.94
2023-05-08T08:22:58.595Z,63.28
2023-05-08T08:25:27.778Z,62.64
2023-05-08T08:27:55.153Z,54.25
2023-05-08T08:30:22.359Z,56.36
2023-05-08T08:32:49.838Z,55.46
2023-05-08T08:35:17.326Z,54.98
2023-05-08T08:37:44.655Z,55.78
2023-05-08T08:40:12.344Z,56.35
2023-05-08T08:42:39.461Z,57.44
2023-05-08T08:45:07.170Z,65.90
2023-05-08T08:47:37.897Z,54.21
2023-05-08T08:50:05.650Z,59.79
2023-05-08T08:52:44.919Z,58.74
2023-05-08T08:55:15.863Z,53.14
2023-05-08T08:57:55.300Z,52.70
2023-05-08T09:00:23.847Z,53.53
2023-05-08T09:02:51.542Z,53.37
2023-05-08T09:05:19.063Z,54.91
2023-05-08T09:07:46.611Z,54.48
2023-05-08T09:10:15.763Z,52.76
2023-05-08T09:12:45.037Z,52.70
2023-05-08T09:15:12.779Z,51.15
2023-05-08T09:17:40.442Z,51.89
2023-05-08T09:20:08.343Z,52.05
2023-05-08T09:22:37.089Z,51.40
2023-05-08T09:25:04.583Z,52.79
2023-05-08T09:27:32.444Z,52.63
2023-05-08T09:30:00.699Z,52.83
2023-05-08T09:32:29.421Z,53.56
2023-05-08T09:34:57.049Z,50.62
2023-05-08T09:37:25.255Z,50.37
2023-05-08T09:39:52.913Z,51.41
2023-05-08T09:42:20.300Z,49.77
2023-05-08T09:44:52.885Z,47.99
2023-05-08T09:47:22.875Z,48.55
2023-05-08T09:50:09.414Z,48.86
2023-05-08T09:52:38.097Z,45.60
2023-05-08T09:55:10.166Z,48.66
2023-05-08T09:57:39.412Z,46.59
2023-05-08T10:00:11.709Z,45.72
2023-05-08T10:02:53.703Z,45.70
2023-05-08T10:05:25.659Z,45.58
2023-05-08T10:07:53.427Z,49.46
2023-05-08T10:10:27.830Z,48.87
2023-05-08T10:12:57.313Z,43.03
2023-05-08T10:15:29.260Z,46.40
2023-05-08T10:18:06.538Z,43.59
2023-05-08T10:20:36.030Z,42.54
2023-05-08T10:23:06.476Z,42.87
2023-05-08T10:25:35.635Z,42.98
2023-05-08T10:28:23.093Z,43.50
2023-05-08T10:30:51.065Z,44.15
2023-05-08T10:33:20.916Z,44.95
2023-05-08T10:35:48.229Z,42.67
2023-05-08T10:38:16.884Z,42.00
2023-05-08T10:40:44.245Z,41.31
2023-05-08T10:43:11.554Z,41.90
2023-05-08T10:45:39.312Z,40.70
2023-05-08T10:48:31.034Z,44.54
2023-05-08T10:51:17.890Z,41.45
2023-05-08T10:53:54.295Z,40.77
2023-05-08T10:56:28.627Z,41.24
2023-05-08T10:58:56.746Z,39.80
2023-05-08T11:01:25.694Z,38.91
2023-05-08T11:03:55.187Z,40.72
2023-05-08T11:06:45.659Z,41.42
2023-05-08T11:09:21.565Z,39.59
2023-05-08T11:12:00.389Z,40.41
2023-05-08T11:14:28.100Z,39.45
2023-05-08T11:16:55.230Z,41.57
2023-05-08T11:19:23.972Z,42.11
2023-05-08T11:22:24.891Z,42.48
2023-05-08T11:25:00.262Z,40.22
2023-05-08T11:27:48.944Z,39.75
2023-05-08T11:30:32.280Z,40.29
2023-05-08T11:33:06.096Z,41.47
2023-05-08T11:35:56.141Z,40.87
2023-05-08T11:38:31.688Z,43.70
2023-05-08T11:41:06.623Z,39.92
2023-05-08T11:43:34.078Z,39.77
2023-05-08T11:46:13.742Z,39.36
2023-05-08T11:48:41.251Z,40.27
2023-05-08T11:51:08.436Z,41.59
2023-05-08T11:53:36.984Z,39.46
2023-05-08T11:56:04.794Z,37.97
2023-05-08T11:58:32.033Z,38.74
2023-05-08T12:00:59.243Z,36.90
2023-05-08T12:03:26.816Z,39.02
2023-05-08T12:05:58.033Z,37.61
2023-05-08T12:08:25.483Z,38.83
2023-05-08T12:10:54.838Z,38.04
2023-05-08T12:13:26.728Z,40.05
2023-05-08T12:15:58.996Z,39.27
2023-05-08T12:18:27.666Z,37.24
2023-05-08T12:21:00.306Z,38.72
2023-05-08T12:23:30.946Z,39.24
2023-05-08T12:26:00.073Z,37.60
2023-05-08T12:28:27.599Z,38.29
2023-05-08T12:30:55.034Z,38.89
2023-05-08T12:33:22.525Z,38.11
2023-05-08T12:35:49.744Z,40.35
2023-05-08T12:38:16.917Z,40.07
2023-05-08T12:40:46.424Z,40.34
2023-05-08T12:43:13.559Z,38.83
2023-05-08T12:45:42.451Z,37.52
2023-05-08T12:48:12.526Z,36.43
2023-05-08T12:50:44.026Z,37.54
2023-05-08T12:53:19.412Z,33.85
2023-05-08T12:56:10.769Z,37.29
2023-05-08T12:58:38.224Z,35.25
2023-05-08T13:01:13.374Z,33.58
2023-05-08T13:03:41.535Z,35.74
2023-05-08T13:06:20.701Z,36.39
2023-05-08T13:08:53.312Z,34.73
2023-05-08T13:11:30.520Z,33.14
2023-05-08T13:13:58.058Z,35.66
2023-05-08T13:16:25.305Z,35.63
2023-05-08T13:18:52.431Z,34.41
2023-05-08T13:21:19.840Z,35.16
2023-05-08T13:23:46.982Z,35.30
2023-05-08T13:26:14.095Z,33.88
2023-05-08T13:28:41.527Z,36.35
2023-05-08T13:31:08.625Z,36.76
2023-05-08T13:33:35.756Z,36.63
2023-05-08T13:36:03.249Z,36.79
2023-05-08T13:38:30.334Z,36.44
2023-05-08T13:40:57.482Z,36.59
2023-05-08T13:43:24.905Z,33.68
2023-05-08T13:45:52.190Z,35.90
2023-05-08T13:48:19.643Z,34.97
2023-05-08T13:50:47.050Z,35.30
2023-05-08T13:53:14.199Z,34.56
2023-05-08T13:55:42.276Z,32.46
2023-05-08T13:58:09.724Z,33.77
2023-05-08T14:00:36.886Z,34.22
2023-05-08T14:03:04.500Z,32.53
2023-05-08T14:05:31.667Z,33.83
2023-05-08T14:07:58.752Z,34.35
2023-05-08T14:10:26.228Z,32.83
2023-05-08T14:12:53.349Z,32.58
2023-05-08T14:15:22.205Z,32.69
2023-05-08T14:17:50.817Z,32.63
2023-05-08T14:20:18.018Z,31.60
2023-05-08T14:25:13.459Z,32.00
2023-05-08T14:27:40.810Z,32.46
2023-05-08T14:30:08.622Z,33.75
2023-05-08T14:32:36.184Z,32.49
2023-05-08T14:35:03.398Z,31.42
2023-05-08T14:37:31.264Z,32.41
2023-05-08T14:39:59.447Z,34.60
2023-05-08T14:42:26.584Z,32.00
2023-05-08T14:44:53.812Z,31.57
2023-05-08T14:47:21.432Z,32.49
2023-05-08T14:49:48.539Z,30.05
2023-05-08T14:52:15.849Z,30.27
2023-05-08T14:54:43.496Z,30.23
2023-05-08T14:57:10.878Z,30.79
2023-05-08T14:59:41.675Z,31.27
2023-05-08T15:02:18.016Z,30.29
2023-05-08T15:04:46.118Z,29.19
2023-05-08T15:07:13.300Z,31.01
2023-05-08T15:09:41.002Z,31.68
2023-05-08T15:12:08.109Z,32.70
2023-05-08T15:14:35.308Z,30.17
2023-05-08T15:17:02.759Z,29.61
2023-05-08T15:19:29.865Z,29.17
2023-05-08T15:21:56.953Z,29.17
2023-05-08T15:24:24.434Z,29.07
2023-05-08T15:26:51.551Z,29.24
2023-05-08T15:29:18.697Z,31.42
2023-05-08T15:31:46.269Z,26.60
2023-05-08T15:34:13.405Z,27.42
2023-05-08T15:36:40.520Z,28.42
2023-05-08T15:39:08.003Z,28.52
2023-05-08T15:41:36.465Z,27.34
2023-05-08T15:44:03.565Z,29.43
2023-05-08T15:46:30.910Z,28.19
2023-05-08T15:48:59.275Z,28.95
2023-05-08T15:51:27.816Z,28.41
2023-05-08T15:53:56.260Z,28.03
2023-05-08T15:56:25.727Z,28.50
2023-05-08T15:58:53.217Z,29.86
2023-05-08T16:01:20.798Z,30.61
2023-05-08T16:03:48.364Z,31.40
2023-05-08T16:06:16.676Z,31.60
2023-05-08T16:08:44.074Z,31.81
2023-05-08T16:11:11.510Z,32.65
2023-05-08T16:13:38.698Z,33.23
2023-05-08T16:16:06.271Z,35.42
2023-05-08T16:18:36.710Z,33.81
2023-05-08T16:21:09.088Z,35.02
2023-05-08T16:23:36.445Z,32.95
2023-05-08T16:26:03.626Z,32.95
2023-05-08T16:28:30.895Z,34.77
2023-05-08T16:30:58.300Z,36.35
2023-05-08T16:33:25.485Z,37.85
2023-05-08T16:35:52.637Z,36.85
2023-05-08T16:38:20.416Z,37.65
2023-05-08T16:40:47.569Z,37.23
2023-05-08T16:43:14.685Z,37.28
2023-05-08T16:45:42.747Z,37.10
2023-05-08T16:48:09.943Z,37.59
2023-05-08T16:50:37.392Z,37.64
2023-05-08T16:53:05.054Z,38.18
2023-05-08T16:55:32.145Z,38.42
2023-05-08T16:57:59.251Z,38.85
2023-05-08T17:00:26.816Z,38.17
2023-05-08T17:02:54.083Z,38.87
2023-05-08T17:05:21.409Z,38.12
2023-05-08T17:07:48.862Z,38.38
2023-05-08T17:10:16.197Z,38.72
2023-05-08T17:12:43.353Z,39.63
2023-05-08T17:15:11.522Z,40.28
2023-05-08T17:17:38.721Z,39.12
2023-05-08T17:20:06.499Z,40.35
2023-05-08T17:22:33.903Z,39.54
2023-05-08T17:25:01.076Z,40.74
2023-05-08T17:27:28.234Z,41.15
2023-05-08T17:29:55.999Z,39.77
2023-05-08T17:32:23.185Z,40.56
2023-05-08T17:34:50.418Z,41.67
2023-05-08T17:37:17.861Z,41.14
2023-05-08T17:39:45.013Z,41.77
2023-05-08T17:42:12.131Z,41.99
2023-05-08T17:44:42.712Z,42.93
2023-05-08T17:47:09.898Z,43.69
2023-05-08T17:49:37.022Z,42.76
2023-05-08T17:52:04.735Z,43.50
2023-05-08T17:54:31.891Z,42.73
2023-05-08T17:56:59.013Z,43.36
2023-05-08T17:59:26.731Z,43.60
2023-05-08T18:01:54.631Z,45.34
2023-05-08T18:04:21.985Z,43.89
2023-05-08T18:06:49.510Z,44.82
2023-05-08T18:09:16.660Z,46.08
2023-05-08T18:11:44.114Z,45.23
2023-05-08T18:14:11.370Z,47.88
2023-05-08T18:16:38.548Z,46.72
2023-05-08T18:19:06.090Z,45.45
2023-05-08T18:21:33.257Z,46.30
2023-05-08T18:24:00.858Z,45.07
2023-05-08T18:26:28.507Z,47.97
2023-05-08T18:28:55.799Z,46.32
2023-05-08T18:31:22.931Z,46.21
2023-05-08T18:33:52.684Z,46.81
2023-05-08T18:36:19.768Z,46.99
2023-05-08T18:38:46.949Z,47.55
2023-05-08T18:41:14.541Z,46.99
2023-05-08T18:43:41.836Z,45.44
2023-05-08T18:46:12.590Z,45.90
2023-05-08T18:48:40.962Z,48.74
2023-05-08T18:51:08.094Z,48.11
2023-05-08T18:53:38.417Z,46.99
2023-05-08T18:56:06.338Z,46.34
2023-05-08T18:58:33.608Z,46.27
2023-05-08T19:01:01.321Z,45.73
2023-05-08T19:03:28.993Z,46.64
2023-05-08T19:05:56.258Z,46.86
2023-05-08T19:08:23.472Z,46.21
2023-05-08T19:10:50.956Z,48.69
2023-05-08T19:13:18.128Z,47.52
2023-05-08T19:15:45.308Z,46.48
2023-05-08T19:18:14.086Z,48.47
2023-05-08T19:20:41.200Z,46.43
2023-05-08T19:23:08.360Z,46.18
2023-05-08T19:25:35.879Z,47.88
2023-05-08T19:28:04.085Z,48.73
2023-05-08T19:30:31.216Z,48.39
2023-05-08T19:32:58.668Z,46.90
2023-05-08T19:35:25.840Z,49.20
2023-05-08T19:37:53.050Z,46.25
2023-05-08T19:40:20.480Z,47.72
2023-05-08T19:42:47.588Z,47.96
2023-05-08T19:45:16.218Z,46.01
2023-05-08T19:47:47.482Z,47.14
2023-05-08T19:50:18.019Z,46.00
2023-05-08T19:52:48.898Z,48.44
2023-05-08T19:55:19.127Z,48.13
2023-05-08T19:57:46.513Z,50.82
2023-05-08T20:00:14.031Z,49.39
2023-05-08T20:02:41.702Z,48.99
2023-05-08T20:07:39.173Z,51.48
2023-05-08T20:10:07.267Z,51.16
2023-05-08T20:12:34.360Z,49.02
2023-05-08T20:15:01.440Z,48.60
2023-05-08T20:17:28.965Z,50.28
2023-05-08T20:19:56.194Z,51.32
2023-05-08T20:22:23.342Z,49.54
2023-05-08T20:24:50.733Z,51.69
2023-05-08T20:27:17.900Z,50.04
2023-05-08T20:29:45.433Z,48.01
2023-05-08T20:32:19.014Z,49.41
2023-05-08T20:34:46.148Z,48.29
2023-05-08T20:37:15.869Z,50.98
2023-05-08T20:39:43.425Z,49.11
2023-05-08T20:42:10.639Z,49.14
2023-05-08T20:44:38.014Z,53.08
2023-05-08T20:47:05.200Z,48.65
2023-05-08T20:49:32.340Z,47.75
2023-05-08T20:51:59.748Z,53.25
2023-05-08T20:54:29.349Z,48.63
2023-05-08T20:56:56.462Z,48.28
2023-05-08T20:59:23.864Z,48.55
2023-05-08T21:01:51.124Z,49.03
2023-05-08T21:04:18.337Z,48.28
2023-05-08T21:06:45.767Z,49.61
2023-05-08T21:09:12.907Z,48.96
2023-05-08T21:11:40.017Z,48.78
2023-05-08T21:14:07.427Z,49.64
2023-05-08T21:16:34.598Z,49.88
2023-05-08T21:19:01.864Z,49.53
2023-05-08T21:21:29.216Z,49.99
2023-05-08T21:23:56.307Z,50.54
2023-05-08T21:26:23.812Z,50.23
2023-05-08T21:28:53.681Z,52.03
2023-05-08T21:31:20.851Z,52.07
2023-05-08T21:33:47.997Z,50.74
2023-05-08T21:36:15.448Z,51.13
2023-05-08T21:38:42.551Z,51.15
2023-05-08T21:41:09.697Z,50.47
2023-05-08T21:43:37.251Z,53.42
2023-05-08T21:46:05.543Z,52.67
2023-05-08T21:48:33.488Z,49.50
2023-05-08T21:51:01.198Z,52.72
2023-05-08T21:53:28.501Z,50.84
2023-05-08T21:55:55.634Z,49.94
2023-05-08T21:58:23.203Z,50.62
2023-05-08T22:00:50.313Z,52.74
2023-05-08T22:03:18.143Z,49.89
2023-05-08T22:05:45.460Z,53.25
2023-05-08T22:08:12.726Z,52.10
2023-05-08T22:10:40.197Z,51.88
2023-05-08T22:13:07.594Z,51.37
2023-05-08T22:15:34.956Z,54.05
2023-05-08T22:18:02.858Z,53.34
2023-05-08T22:20:30.439Z,55.05
2023-05-08T22:22:57.532Z,52.19
2023-05-08T22:25:25.702Z,55.25
2023-05-08T22:27:52.839Z,51.84
2023-05-08T22:30:20.018Z,51.89
2023-05-08T22:32:55.869Z,52.42
2023-05-08T22:35:24.492Z,51.72
2023-05-08T22:37:52.587Z,51.51
2023-05-08T22:40:22.000Z,52.59
2023-05-08T22:42:51.556Z,51.70
2023-05-08T22:45:19.448Z,51.72
2023-05-08T22:47:46.573Z,53.49
2023-05-08T22:50:13.891Z,54.65
2023-05-08T22:52:41.326Z,54.88
2023-05-08T22:55:08.859Z,54.20
2023-05-08T22:57:36.005Z,54.16
2023-05-08T23:00:04.103Z,54.69
2023-05-08T23:02:33.348Z,55.46
2023-05-08T23:05:00.949Z,54.87
2023-05-08T23:07:28.988Z,54.84
2023-05-08T23:09:56.141Z,54.47
2023-05-08T23:12:23.236Z,55.14
2023-05-08T23:14:50.651Z,55.37
2023-05-08T23:17:17.732Z,55.80
2023-05-08T23:19:45.636Z,56.53
2023-05-08T23:22:13.147Z,57.25
2023-05-08T23:24:40.316Z,57.14
2023-05-08T23:27:07.475Z,56.45
2023-05-08T23:29:34.911Z,56.77
2023-05-08T23:32:02.054Z,56.57
2023-05-08T23:34:29.164Z,56.41
2023-05-08T23:36:56.961Z,56.00
2023-05-08T23:39:24.145Z,55.06
2023-05-08T23:41:51.258Z,54.54
2023-05-08T23:44:18.883Z,54.42
2023-05-08T23:46:46.349Z,54.67
2023-05-08T23:49:13.538Z,54.36
2023-05-08T23:51:41.068Z,54.85
2023-05-08T23:54:08.190Z,54.97
2023-05-08T23:56:35.424Z,55.11
2023-05-08T23:59:02.856Z,55.77
